createdAt,value
2023-06-28T00:01:23.643Z,18.70
2023-06-28T00:06:26.412Z,18.03
2023-06-28T00:11:29.628Z,17.90
2023-06-28T00:16:32.731Z,19.22
2023-06-28T00:21:35.571Z,17.38
2023-06-28T00:26:38.346Z,17.72
2023-06-28T00:31:41.167Z,18.71
2023-06-28T00:36:43.991Z,17.06
2023-06-28T00:41:46.750Z,17.42
2023-06-28T00:46:50.032Z,19.02
2023-06-28T00:51:52.842Z,17.21
2023-06-28T00:56:55.656Z,17.38
2023-06-28T01:01:58.643Z,18.41
2023-06-28T01:07:01.876Z,16.70
2023-06-28T01:12:05.774Z,17.50
2023-06-28T01:17:08.641Z,17.77
2023-06-28T01:22:14.226Z,17.66
2023-06-28T01:27:17.205Z,18.75
2023-06-28T01:32:21.108Z,16.92
2023-06-28T01:37:24.147Z,18.45
2023-06-28T01:42:27.566Z,18.08
2023-06-28T01:47:30.455Z,17.39
2023-06-28T01:52:33.338Z,18.87
2023-06-28T01:57:36.120Z,16.99
2023-06-28T02:02:38.937Z,17.15
2023-06-28T02:07:42.096Z,19.38
2023-06-28T02:12:45.229Z,19.20
2023-06-28T02:17:49.222Z,17.03
2023-06-28T02:22:52.163Z,18.39
2023-06-28T02:27:54.967Z,17.79
2023-06-28T02:32:57.784Z,17.45
2023-06-28T02:38:00.636Z,18.64
2023-06-28T02:43:03.505Z,17.40
2023-06-28T02:48:06.420Z,18.84
2023-06-28T02:53:09.873Z,17.49
2023-06-28T02:58:13.411Z,18.25
2023-06-28T03:03:16.899Z,17.99
2023-06-28T03:08:19.796Z,17.82
2023-06-28T03:13:23.117Z,19.13
2023-06-28T03:18:25.989Z,17.46
2023-06-28T03:23:28.775Z,18.52
2023-06-28T03:28:31.496Z,18.64
2023-06-28T03:33:34.542Z,18.15
2023-06-28T03:38:37.356Z,19.45
2023-06-28T03:43:40.062Z,18.26
2023-06-28T03:48:42.837Z,19.68
2023-06-28T03:53:45.618Z,18.56
2023-06-28T03:58:50.934Z,18.72
2023-06-28T04:03:53.769Z,18.57
2023-06-28T04:08:56.492Z,18.65
2023-06-28T04:13:59.217Z,19.34
2023-06-28T04:19:02.005Z,18.12
2023-06-28T04:24:04.905Z,19.72
2023-06-28T04:29:07.713Z,19.83
2023-06-28T04:34:10.563Z,18.95
2023-06-28T04:39:13.669Z,20.10
2023-06-28T04:44:17.245Z,18.85
2023-06-28T04:49:20.061Z,20.33
2023-06-28T04:54:22.748Z,20.30
2023-06-28T04:59:25.487Z,19.11
2023-06-28T05:04:28.294Z,20.36
2023-06-28T05:09:31.728Z,19.11
2023-06-28T05:14:35.042Z,19.83
2023-06-28T05:19:37.916Z,19.79
2023-06-28T05:24:40.723Z,19.36
2023-06-28T05:29:43.463Z,20.07
2023-06-28T05:34:46.129Z,19.13
2023-06-28T05:39:48.923Z,20.70
2023-06-28T05:44:51.629Z,19.52
2023-06-28T05:49:54.392Z,19.71
2023-06-28T05:54:57.072Z,21.48
2023-06-28T05:59:59.906Z,20.20
2023-06-28T06:05:05.669Z,19.48
2023-06-28T06:10:10.631Z,21.53
2023-06-28T06:15:14.009Z,21.25
2023-06-28T06:20:16.936Z,20.30
2023-06-28T06:25:19.993Z,19.89
2023-06-28T06:30:22.790Z,22.06
2023-06-28T06:35:26.968Z,21.68
2023-06-28T06:40:29.768Z,20.51
2023-06-28T06:45:32.650Z,20.09
2023-06-28T06:50:35.474Z,19.80
2023-06-28T06:55:38.298Z,19.71
2023-06-28T07:00:41.187Z,21.28
2023-06-28T07:05:44.717Z,20.54
2023-06-28T07:10:47.818Z,20.11
2023-06-28T07:15:50.592Z,19.96
2023-06-28T07:20:53.320Z,19.79
2023-06-28T07:25:56.097Z,19.78
2023-06-28T07:31:00.322Z,19.77
2023-06-28T07:36:03.651Z,20.11
2023-06-28T07:41:07.687Z,20.30
2023-06-28T07:46:10.939Z,20.27
2023-06-28T07:51:13.775Z,20.13
2023-06-28T07:56:16.682Z,20.09
2023-06-28T08:01:19.479Z,20.25
2023-06-28T08:06:22.331Z,20.30
2023-06-28T08:11:28.181Z,20.12
2023-06-28T08:16:31.000Z,19.99
2023-06-28T08:21:33.877Z,19.93
2023-06-28T08:26:37.475Z,19.88
2023-06-28T08:31:40.382Z,19.84
2023-06-28T08:36:43.670Z,19.89
2023-06-28T08:41:47.042Z,20.02
2023-06-28T08:46:51.061Z,20.21
2023-06-28T08:51:55.782Z,20.29
2023-06-28T08:57:11.362Z,20.21
2023-06-28T09:02:20.819Z,20.27
2023-06-28T09:07:24.690Z,20.49
2023-06-28T09:12:29.500Z,20.77
2023-06-28T09:17:32.417Z,20.90
2023-06-28T09:22:35.361Z,20.83
2023-06-28T09:27:38.217Z,20.60
2023-06-28T09:32:46.701Z,20.28
2023-06-28T09:37:51.995Z,20.13
2023-06-28T09:42:54.836Z,20.26
2023-06-28T09:48:02.205Z,20.61
2023-06-28T09:53:14.151Z,20.84
2023-06-28T09:58:19.402Z,20.72
2023-06-28T10:03:25.983Z,20.62
2023-06-28T10:08:29.011Z,20.50
2023-06-28T10:13:31.942Z,20.42
2023-06-28T10:18:34.882Z,20.36
2023-06-28T10:23:40.485Z,20.38
2023-06-28T10:28:45.295Z,20.60
2023-06-28T10:33:49.107Z,21.05
2023-06-28T10:38:52.751Z,21.61
2023-06-28T10:44:06.748Z,22.10
2023-06-28T10:49:09.691Z,22.52
2023-06-28T10:54:16.045Z,22.68
2023-06-28T10:59:19.899Z,22.74
2023-06-28T11:04:27.007Z,22.53
2023-06-28T11:09:29.907Z,22.47
2023-06-28T11:14:33.488Z,22.81
2023-06-28T11:19:36.321Z,22.87
2023-06-28T11:24:39.119Z,22.48
2023-06-28T11:29:59.940Z,22.05
2023-06-28T11:35:05.523Z,21.68
2023-06-28T11:40:09.909Z,21.57
2023-06-28T11:45:13.910Z,21.80
2023-06-28T11:50:17.194Z,22.12
2023-06-28T11:55:20.373Z,22.55
2023-06-28T12:00:23.468Z,22.57
2023-06-28T12:05:28.309Z,22.25
2023-06-28T12:10:36.559Z,22.06
2023-06-28T12:15:39.508Z,22.12
2023-06-28T12:20:44.709Z,22.32
2023-06-28T12:25:48.591Z,22.51
2023-06-28T12:30:57.658Z,22.61
2023-06-28T12:36:01.360Z,22.76
2023-06-28T12:41:07.553Z,23.25
2023-06-28T12:46:11.690Z,23.95
2023-06-28T12:51:14.479Z,24.58
2023-06-28T12:56:17.378Z,24.98
2023-06-28T13:01:20.205Z,24.95
2023-06-28T13:06:23.621Z,24.95
2023-06-28T13:11:31.005Z,24.91
2023-06-28T13:16:33.897Z,24.73
2023-06-28T13:21:36.889Z,24.37
2023-06-28T13:26:39.740Z,24.19
2023-06-28T13:31:44.581Z,24.24
2023-06-28T13:36:48.484Z,24.36
2023-06-28T13:41:51.383Z,24.58
2023-06-28T13:46:54.260Z,24.96
2023-06-28T13:51:57.052Z,25.50
2023-06-28T13:57:00.052Z,25.29
2023-06-28T14:02:02.958Z,25.31
2023-06-28T14:07:06.873Z,25.20
2023-06-28T14:12:10.046Z,25.31
2023-06-28T14:17:13.013Z,25.69
2023-06-28T14:22:16.131Z,25.84
2023-06-28T14:27:18.888Z,25.62
2023-06-28T14:32:22.481Z,25.18
2023-06-28T14:37:25.321Z,24.96
2023-06-28T14:42:28.161Z,25.33
2023-06-28T14:47:31.042Z,25.95
2023-06-28T14:52:34.004Z,26.82
2023-06-28T14:57:36.750Z,26.83
2023-06-28T15:02:39.701Z,26.37
2023-06-28T15:07:42.777Z,26.92
2023-06-28T15:12:45.544Z,26.83
2023-06-28T15:17:48.408Z,26.85
2023-06-28T15:22:54.456Z,27.90
2023-06-28T15:27:57.190Z,28.29
2023-06-28T15:33:00.106Z,27.62
2023-06-28T15:38:03.838Z,26.88
2023-06-28T15:43:06.763Z,26.02
2023-06-28T15:48:10.089Z,25.16
2023-06-28T15:53:12.917Z,24.50
2023-06-28T15:58:15.774Z,24.74
2023-06-28T16:03:18.962Z,25.63
2023-06-28T16:08:21.988Z,26.56
2023-06-28T16:13:25.843Z,28.23
2023-06-28T16:18:28.659Z,28.66
2023-06-28T16:23:31.484Z,29.01
2023-06-28T16:28:34.260Z,29.90
2023-06-28T16:33:37.753Z,30.86
2023-06-28T16:38:40.595Z,31.77
2023-06-28T16:43:43.398Z,32.14
2023-06-28T16:48:46.390Z,32.48
2023-06-28T16:53:49.330Z,32.76
2023-06-28T16:58:52.112Z,33.06
2023-06-28T17:03:55.470Z,33.64
2023-06-28T17:08:58.229Z,33.55
2023-06-28T17:14:01.026Z,33.24
2023-06-28T17:19:04.920Z,33.12
2023-06-28T17:24:08.140Z,33.09
2023-06-28T17:29:11.051Z,32.67
2023-06-28T17:34:13.910Z,32.38
2023-06-28T17:39:18.414Z,32.22
2023-06-28T17:44:21.174Z,32.00
2023-06-28T17:49:24.400Z,31.87
2023-06-28T17:54:29.316Z,32.12
2023-06-28T17:59:32.187Z,32.21
2023-06-28T18:04:35.209Z,31.62
2023-06-28T18:09:38.176Z,29.91
2023-06-28T18:14:43.660Z,27.73
2023-06-28T18:19:47.054Z,26.00
2023-06-28T18:24:49.803Z,24.68
2023-06-28T18:29:52.661Z,23.72
2023-06-28T18:34:55.473Z,22.87
2023-06-28T18:39:58.343Z,22.14
2023-06-28T18:45:01.201Z,21.55
2023-06-28T18:50:05.054Z,20.97
2023-06-28T18:55:09.579Z,20.48
2023-06-28T19:00:16.227Z,20.08
2023-06-28T19:05:19.140Z,19.73
2023-06-28T19:10:22.233Z,19.44
2023-06-28T19:15:25.905Z,19.19
2023-06-28T19:20:28.649Z,21.37
2023-06-28T19:25:31.683Z,22.14
2023-06-28T19:30:34.725Z,20.59
2023-06-28T19:35:37.689Z,19.67
2023-06-28T19:40:40.664Z,21.59
2023-06-28T19:45:44.922Z,22.51
2023-06-28T19:50:48.015Z,20.78
2023-06-28T19:55:50.816Z,19.80
2023-06-28T20:00:54.369Z,21.75
2023-06-28T20:05:57.231Z,21.33
2023-06-28T20:11:00.021Z,19.86
2023-06-28T20:16:03.044Z,21.67
2023-06-28T20:21:05.966Z,22.00
2023-06-28T20:26:08.758Z,20.22
2023-06-28T20:31:12.102Z,20.97
2023-06-28T20:36:14.960Z,22.37
2023-06-28T20:41:26.014Z,20.54
2023-06-28T20:46:29.246Z,21.15
2023-06-28T20:51:31.959Z,22.13
2023-06-28T20:56:34.705Z,20.23
2023-06-28T21:01:37.436Z,21.07
2023-06-28T21:06:41.233Z,22.43
2023-06-28T21:11:43.989Z,20.56
2023-06-28T21:16:47.024Z,20.96
2023-06-28T21:21:49.886Z,22.62
2023-06-28T21:26:52.627Z,20.97
2023-06-28T21:31:55.424Z,19.67
2023-06-28T21:36:58.194Z,21.80
2023-06-28T21:42:01.032Z,22.45
2023-06-28T21:47:04.089Z,20.55
2023-06-28T21:52:07.206Z,19.72
2023-06-28T21:57:10.087Z,22.06
2023-06-28T22:02:12.774Z,22.18
2023-06-28T22:07:15.766Z,20.04
2023-06-28T22:12:18.447Z,21.40
2023-06-28T22:17:21.354Z,22.70
2023-06-28T22:22:24.125Z,22.23
2023-06-28T22:27:27.165Z,20.11
2023-06-28T22:32:30.048Z,20.54
2023-06-28T22:37:32.918Z,22.59
2023-06-28T22:42:35.734Z,21.29
2023-06-28T22:47:38.404Z,19.70
2023-06-28T22:52:45.622Z,21.42
2023-06-28T22:57:49.356Z,21.91
2023-06-28T23:02:52.240Z,19.94
2023-06-28T23:07:55.590Z,20.48
2023-06-28T23:12:58.345Z,22.46
2023-06-28T23:18:02.086Z,21.01
2023-06-28T23:23:05.432Z,21.10
2023-06-28T23:28:08.167Z,22.85
2023-06-28T23:33:15.327Z,21.18
2023-06-28T23:38:18.324Z,21.10
2023-06-28T23:43:21.047Z,23.12
2023-06-28T23:48:27.019Z,22.78
2023-06-28T23:53:29.828Z,20.86
2023-06-28T23:58:32.480Z,20.82
